Time;durP1;ratioP1;P1;durP2;ratioP2;P2;SDS_P1;SDS_P2;PMS_P1;PMS_P2;Temp;Humidity;BMP_temperature;BMP_pressure;BME280_temperature;BME280_humidity;BME280_pressure;Samples;Min_cycle;Max_cycle;Signal;HPM_P1;HPM_P2
2021/08/02 00:00:53;;;;;;;11.00;7.88;;;;;;;31.78;33.95;98978.78;5052291;28;20021;-80
2021/08/02 00:03:28;;;;;;;13.68;7.70;;;;;;;31.85;34.13;99003.63;5051195;28;20102;-80
2021/08/02 00:05:57;;;;;;;11.27;7.63;;;;;;;31.82;33.78;98990.66;5052183;28;20016;-79
2021/08/02 00:08:24;;;;;;;13.02;7.97;;;;;;;31.84;33.84;98995.78;5052432;28;20025;-81
2021/08/02 00:10:50;;;;;;;13.10;8.10;;;;;;;31.71;33.96;98994.91;5052114;28;20391;-80
2021/08/02 00:13:26;;;;;;;13.73;7.90;;;;;;;31.65;33.99;98993.47;5050804;28;20055;-81
2021/08/02 00:15:54;;;;;;;12.32;7.85;;;;;;;30.92;34.09;98886.47;5052105;28;20028;-80
2021/08/02 00:18:20;;;;;;;12.68;7.25;;;;;;;31.58;33.95;98996.72;5052178;28;20036;-80
2021/08/02 00:20:45;;;;;;;12.25;8.10;;;;;;;31.25;34.12;98942.00;5052081;28;20017;-79
2021/08/02 00:23:11;;;;;;;11.55;8.13;;;;;;;31.50;34.45;98992.09;5051799;28;20048;-80
2021/08/02 00:25:38;;;;;;;11.93;8.23;;;;;;;31.48;34.49;98988.09;5051593;28;20504;-80
2021/08/02 00:28:03;;;;;;;11.57;7.68;;;;;;;31.31;34.63;98972.63;5051704;28;20123;-81
2021/08/02 00:30:30;;;;;;;14.38;8.27;;;;;;;30.96;34.82;98920.91;5051857;28;20553;-82
2021/08/02 00:32:55;;;;;;;9.48;7.40;;;;;;;31.39;34.79;98992.81;5051845;28;20021;-82
2021/08/02 00:35:21;;;;;;;10.52;7.32;;;;;;;31.26;35.18;98981.00;5051534;28;20414;-81
2021/08/02 00:38:04;;;;;;;10.35;8.13;;;;;;;30.99;35.06;98944.81;5051679;28;20060;-81
2021/08/02 00:40:48;;;;;;;13.90;8.38;;;;;;;31.36;34.72;98988.00;5051092;28;20020;-79
2021/08/02 00:43:19;;;;;;;13.65;8.20;;;;;;;31.38;34.97;98985.75;5051662;28;20533;-81
2021/08/02 00:45:45;;;;;;;14.15;7.93;;;;;;;31.38;35.29;98992.00;5051483;28;20032;-79
2021/08/02 00:48:17;;;;;;;10.43;8.07;;;;;;;31.17;35.08;98966.56;5051874;28;20017;-78
2021/08/02 00:50:46;;;;;;;12.65;7.53;;;;;;;31.04;35.31;98951.19;5051474;28;20017;-80
2021/08/02 00:53:17;;;;;;;11.70;8.10;;;;;;;31.14;35.22;98968.00;5050288;28;20056;-81
2021/08/02 00:55:46;;;;;;;11.93;8.10;;;;;;;31.27;35.41;98979.88;5051651;28;20040;-80
2021/08/02 00:58:15;;;;;;;12.63;8.23;;;;;;;30.88;35.42;98932.66;5051404;28;20031;-79
2021/08/02 01:00:42;;;;;;;14.25;8.25;;;;;;;31.23;35.60;98995.28;5051434;28;20048;-81
2021/08/02 01:03:10;;;;;;;14.18;8.15;;;;;;;31.01;35.58;98965.50;5049867;28;20017;-80
2021/08/02 01:05:39;;;;;;;14.07;7.97;;;;;;;31.20;35.45;98987.72;5051164;28;20036;-80
2021/08/02 01:08:11;;;;;;;11.18;7.80;;;;;;;31.20;35.58;98995.91;5051266;28;20096;-81
2021/08/02 01:10:42;;;;;;;13.32;8.50;;;;;;;30.97;35.81;98974.31;5051555;28;20028;-81
2021/08/02 01:13:12;;;;;;;15.77;8.48;;;;;;;30.79;36.25;98950.97;5051334;28;20032;-80
2021/08/02 01:15:38;;;;;;;14.05;9.43;;;;;;;30.58;36.35;98934.50;5051267;28;20017;-81
2021/08/02 01:18:07;;;;;;;14.10;7.70;;;;;;;30.64;36.29;98938.69;5051220;28;20025;-80
2021/08/02 01:20:40;;;;;;;13.25;8.80;;;;;;;30.94;36.22;99004.16;5051161;28;20092;-81
2021/08/02 01:23:05;;;;;;;18.25;8.98;;;;;;;30.56;36.24;98953.09;5051580;28;20772;-79
2021/08/02 01:25:33;;;;;;;14.45;8.52;;;;;;;30.84;36.65;98999.88;5051358;28;20103;-80
2021/08/02 01:28:14;;;;;;;12.13;8.57;;;;;;;30.81;36.75;99000.50;5051432;28;20032;-80
2021/08/02 01:31:00;;;;;;;14.07;9.00;;;;;;;30.76;36.64;99010.78;5051377;28;20025;-81
2021/08/02 01:33:30;;;;;;;16.55;9.20;;;;;;;30.56;37.14;98987.72;5051524;28;20032;-78
2021/08/02 01:35:57;;;;;;;13.05;8.95;;;;;;;30.74;36.78;98999.41;5051281;28;20502;-79
2021/08/02 01:38:25;;;;;;;14.02;8.57;;;;;;;30.78;36.49;99009.34;5051124;28;20104;-81
2021/08/02 01:40:51;;;;;;;12.98;8.82;;;;;;;30.78;36.63;99025.69;5050853;28;20029;-80
2021/08/02 01:43:16;;;;;;;14.60;9.15;;;;;;;30.50;37.09;98972.66;5050815;28;20090;-82
2021/08/02 01:45:53;;;;;;;15.75;9.90;;;;;;;30.72;37.01;99013.38;5049686;28;20083;-80
2021/08/02 01:48:30;;;;;;;12.10;9.02;;;;;;;30.59;36.46;98992.56;5051153;28;20024;-81
2021/08/02 01:51:01;;;;;;;14.95;8.85;;;;;;;30.71;36.88;99009.03;5053119;28;20118;-82
2021/08/02 01:53:39;;;;;;;13.27;9.57;;;;;;;30.63;37.58;99020.75;5054972;28;20056;-80
2021/08/02 01:56:19;;;;;;;12.73;9.15;;;;;;;30.58;37.59;99016.25;5054679;28;20027;-79
2021/08/02 01:58:52;;;;;;;15.50;9.32;;;;;;;30.55;37.48;99002.47;5054661;28;20060;-79
2021/08/02 02:01:22;;;;;;;13.70;10.02;;;;;;;29.91;37.77;98912.44;5054411;28;20017;-80
2021/08/02 02:03:49;;;;;;;18.73;11.00;;;;;;;30.01;37.57;98942.06;5054432;28;20032;-79
2021/08/02 02:06:16;;;;;;;22.52;11.57;;;;;;;30.40;37.29;98992.84;5054209;28;20518;-80
2021/08/02 02:08:56;;;;;;;21.60;13.30;;;;;;;30.46;37.29;99013.34;5054412;28;20100;-79
2021/08/02 02:11:23;;;;;;;18.17;11.23;;;;;;;30.42;37.42;99009.66;5054528;28;20553;-81
2021/08/02 02:13:53;;;;;;;14.38;10.23;;;;;;;30.46;37.06;99016.06;5053102;28;20268;-80
2021/08/02 02:16:20;;;;;;;14.32;9.70;;;;;;;29.95;37.09;98957.75;5054395;28;20053;-79
2021/08/02 02:18:50;;;;;;;19.17;10.25;;;;;;;29.99;37.40;98982.41;5054054;28;20211;-81
2021/08/02 02:21:18;;;;;;;17.63;12.05;;;;;;;30.02;37.55;99000.84;5054119;28;20028;-80
2021/08/02 02:23:45;;;;;;;17.58;10.73;;;;;;;29.79;37.54;98985.75;5054458;28;20033;-79
2021/08/02 02:26:12;;;;;;;17.90;11.80;;;;;;;30.06;37.64;99042.66;5054112;28;20025;-81
2021/08/02 02:28:39;;;;;;;19.77;12.55;;;;;;;30.01;38.00;99042.78;5054118;28;20029;-80
2021/08/02 02:31:07;;;;;;;23.13;11.55;;;;;;;29.96;38.09;99042.94;5054069;28;20029;-80
2021/08/02 02:33:34;;;;;;;20.60;11.25;;;;;;;29.54;38.29;98987.28;5052765;28;20025;-81
2021/08/02 02:36:01;;;;;;;16.42;11.30;;;;;;;29.85;38.04;99052.53;5054079;28;20032;-81
2021/08/02 02:38:28;;;;;;;18.52;11.77;;;;;;;29.27;38.14;98959.19;5054144;28;20048;-80
2021/08/02 02:40:54;;;;;;;16.13;11.40;;;;;;;29.69;38.50;99035.81;5052573;28;20025;-80
2021/08/02 02:43:20;;;;;;;15.73;12.35;;;;;;;29.79;38.37;99062.75;5053685;28;20033;-79
2021/08/02 02:45:47;;;;;;;16.90;11.18;;;;;;;29.68;38.82;99059.50;5052516;28;20025;-82
2021/08/02 02:48:14;;;;;;;13.88;10.65;;;;;;;29.28;39.34;99050.53;5053697;28;20025;-81
2021/08/02 02:50:44;;;;;;;16.63;11.20;;;;;;;28.99;39.54;99023.03;5053358;28;20055;-80
2021/08/02 02:53:11;;;;;;;15.18;11.00;;;;;;;28.89;39.70;99007.75;5052127;28;20082;-81
2021/08/02 02:55:37;;;;;;;19.55;11.20;;;;;;;29.29;39.67;99071.16;5053321;28;20025;-81
2021/08/02 02:58:03;;;;;;;15.60;11.35;;;;;;;29.22;39.56;99065.38;5053404;28;20029;-80
2021/08/02 03:00:29;;;;;;;17.25;10.90;;;;;;;29.17;39.49;99056.53;5053792;28;20039;-80
2021/08/02 03:02:57;;;;;;;17.13;11.77;;;;;;;29.00;40.10;99041.75;5052880;28;20025;-81
2021/08/02 03:05:23;;;;;;;17.30;11.32;;;;;;;29.03;40.08;99070.22;5053595;28;20035;-81
2021/08/02 03:07:52;;;;;;;20.50;12.20;;;;;;;29.02;40.26;99060.47;5053661;28;20024;-81
2021/08/02 03:10:21;;;;;;;16.48;11.45;;;;;;;29.04;40.20;99072.63;5051684;28;20021;-81
2021/08/02 03:12:47;;;;;;;15.52;11.60;;;;;;;29.07;40.07;99080.16;5053117;28;20108;-81
2021/08/02 03:15:13;;;;;;;19.67;12.05;;;;;;;29.05;40.34;99066.09;5053265;28;20028;-81
2021/08/02 03:17:39;;;;;;;14.43;10.77;;;;;;;28.79;40.29;99043.31;5053138;28;20413;-79
2021/08/02 03:20:05;;;;;;;17.70;11.68;;;;;;;28.96;40.83;99083.41;5053973;28;20033;-81
2021/08/02 03:22:38;;;;;;;16.65;10.60;;;;;;;28.81;40.63;99062.84;5051825;28;20010;-81
2021/08/02 03:25:08;;;;;;;19.30;10.73;;;;;;;28.98;40.51;99095.59;5053231;28;20036;-80
2021/08/02 03:27:41;;;;;;;17.38;10.27;;;;;;;28.73;40.71;99052.72;5053086;28;20023;-80
2021/08/02 03:30:08;;;;;;;17.65;11.57;;;;;;;28.77;40.98;99053.69;5052963;28;20083;-81
2021/08/02 03:32:34;;;;;;;15.73;10.85;;;;;;;29.03;40.73;99081.09;5052975;28;20029;-80
2021/08/02 03:35:02;;;;;;;15.50;10.63;;;;;;;28.65;40.98;99034.44;5051454;28;20039;-80
2021/08/02 03:37:28;;;;;;;15.73;10.75;;;;;;;28.63;40.83;99004.06;5052631;28;20036;-81
2021/08/02 03:39:55;;;;;;;16.70;10.82;;;;;;;28.82;40.87;99033.75;5052998;28;20029;-80
2021/08/02 03:42:23;;;;;;;16.27;11.05;;;;;;;28.69;41.04;99025.38;5052650;28;20583;-81
2021/08/02 03:44:50;;;;;;;15.07;10.10;;;;;;;29.08;40.86;99087.22;5051334;28;20029;-80
2021/08/02 03:47:18;;;;;;;13.85;9.93;;;;;;;29.07;41.11;99092.94;5052579;28;20033;-81
2021/08/02 03:49:44;;;;;;;16.88;10.80;;;;;;;28.65;41.11;99024.38;5052370;28;20090;-81
2021/08/02 03:52:10;;;;;;;21.17;11.38;;;;;;;28.90;41.40;99061.00;5052170;28;20029;-81
2021/08/02 03:54:35;;;;;;;23.98;10.82;;;;;;;28.98;41.45;99071.13;5052347;28;20035;-81
2021/08/02 03:57:01;;;;;;;14.73;10.70;;;;;;;28.76;41.25;99035.78;5052435;28;20082;-81
2021/08/02 03:59:28;;;;;;;23.33;11.40;;;;;;;28.99;41.26;99063.81;5052168;28;20036;-79
2021/08/02 04:01:54;;;;;;;18.05;10.65;;;;;;;28.99;41.33;99058.38;5052281;28;20021;-79
2021/08/02 04:04:20;;;;;;;16.08;10.45;;;;;;;28.99;41.15;99066.53;5052142;28;20039;-81
2021/08/02 04:06:46;;;;;;;17.38;10.40;;;;;;;28.66;41.25;99014.31;5051200;28;20104;-80
2021/08/02 04:09:13;;;;;;;18.15;9.80;;;;;;;29.12;41.01;99075.72;5052102;28;20028;-81
2021/08/02 04:11:40;;;;;;;15.93;10.00;;;;;;;29.16;41.15;99071.25;5051851;28;20116;-81
2021/08/02 04:14:06;;;;;;;16.10;10.32;;;;;;;28.85;41.07;99031.25;5049992;28;20028;-81
2021/08/02 04:16:33;;;;;;;14.90;9.60;;;;;;;29.18;41.44;99074.47;5050943;28;20033;-80
2021/08/02 04:18:59;;;;;;;14.13;9.45;;;;;;;29.12;41.14;99064.84;5050851;28;20063;-81
2021/08/02 04:21:24;;;;;;;19.27;9.93;;;;;;;29.08;41.22;99070.09;5050798;28;20406;-80
2021/08/02 04:23:49;;;;;;;14.75;10.07;;;;;;;29.19;41.55;99084.22;5052041;28;20159;-75
2021/08/02 04:26:15;;;;;;;17.25;10.30;;;;;;;28.89;41.27;99029.50;5051979;28;20021;-75
2021/08/02 04:28:43;;;;;;;11.90;9.15;;;;;;;29.26;41.27;99079.13;5052010;28;20413;-75
2021/08/02 04:31:09;;;;;;;14.77;8.98;;;;;;;29.33;41.27;99091.19;5051625;28;20036;-75
2021/08/02 04:33:35;;;;;;;16.08;9.82;;;;;;;29.29;40.92;99092.91;5050314;28;20028;-75
2021/08/02 04:36:00;;;;;;;20.98;15.88;;;;;;;29.28;41.09;99079.63;5051441;28;20090;-74
2021/08/02 04:38:26;;;;;;;16.65;13.52;;;;;;;28.86;40.75;99005.66;5051486;28;20037;-74
2021/08/02 04:40:51;;;;;;;14.27;10.75;;;;;;;29.14;40.76;99052.53;5051623;28;20417;-74
2021/08/02 04:43:17;;;;;;;15.02;11.02;;;;;;;29.32;40.87;99072.44;5051396;28;20059;-76
2021/08/02 04:45:42;;;;;;;18.13;12.60;;;;;;;29.37;41.06;99081.28;5051303;28;20056;-76
2021/08/02 04:48:07;;;;;;;19.13;12.38;;;;;;;29.38;41.14;99071.19;5050252;28;20470;-76
2021/08/02 04:50:33;;;;;;;15.77;11.65;;;;;;;29.32;41.17;99059.66;5051384;28;20036;-74
2021/08/02 04:52:58;;;;;;;19.42;12.07;;;;;;;29.22;41.18;99040.09;5051489;28;20029;-74
2021/08/02 04:55:24;;;;;;;19.48;12.07;;;;;;;29.51;41.10;99097.53;5050243;28;20025;-77
2021/08/02 04:57:49;;;;;;;20.50;13.55;;;;;;;29.43;40.92;99060.22;5051261;28;20047;-73
2021/08/02 05:00:15;;;;;;;20.08;12.80;;;;;;;29.17;40.98;99013.84;5051591;28;20082;-76
2021/08/02 05:02:40;;;;;;;22.35;13.02;;;;;;;29.16;40.87;99006.00;5051338;28;20167;-75
2021/08/02 05:05:06;;;;;;;17.15;12.57;;;;;;;29.60;41.12;99073.88;5051281;28;20478;-73
2021/08/02 05:07:32;;;;;;;18.35;12.25;;;;;;;29.69;41.04;99076.63;5051235;28;20028;-76
2021/08/02 05:09:57;;;;;;;20.13;11.90;;;;;;;29.48;40.85;99030.16;5051281;28;20028;-74
2021/08/02 05:12:22;;;;;;;21.50;13.20;;;;;;;29.74;40.51;99076.50;5051061;28;20025;-76
2021/08/02 05:14:48;;;;;;;18.23;11.75;;;;;;;29.59;40.83;99045.06;5051022;28;20052;-73
2021/08/02 05:17:14;;;;;;;18.77;12.60;;;;;;;29.71;40.63;99066.22;5050623;28;20028;-73
2021/08/02 05:19:39;;;;;;;19.08;11.95;;;;;;;29.32;40.81;99012.63;5051065;28;20108;-72
2021/08/02 05:22:05;;;;;;;19.05;12.57;;;;;;;29.81;40.64;99073.31;5051114;28;20021;-75
2021/08/02 05:24:31;;;;;;;17.85;12.32;;;;;;;29.78;40.90;99066.59;5051025;28;20111;-81
2021/08/02 05:26:57;;;;;;;15.77;12.60;;;;;;;29.75;40.98;99050.91;5055022;28;20039;-80
2021/08/02 05:29:22;;;;;;;16.83;12.30;;;;;;;29.90;41.13;99055.91;5054931;28;20029;-80
2021/08/02 05:31:48;;;;;;;16.80;12.25;;;;;;;29.87;40.58;99042.94;5054824;28;20107;-79
2021/08/02 05:34:13;;;;;;;26.25;13.80;;;;;;;29.33;40.57;98946.25;5054906;28;20021;-80
2021/08/02 05:36:39;;;;;;;19.45;13.50;;;;;;;29.66;41.11;98996.44;5052302;28;20047;-82
2021/08/02 05:39:05;;;;;;;19.00;11.90;;;;;;;29.56;40.86;98977.69;5040974;28;20025;-80
2021/08/02 05:41:31;;;;;;;21.40;13.90;;;;;;;29.63;40.89;98996.25;5034780;28;20035;-82
2021/08/02 05:43:56;;;;;;;20.77;13.05;;;;;;;29.79;40.91;99027.38;5037316;28;20061;-80
2021/08/02 05:46:22;;;;;;;13.95;10.95;;;;;;;30.11;41.12;99063.50;5049115;28;20065;-81
2021/08/02 05:48:48;;;;;;;16.05;11.90;;;;;;;29.83;41.20;99008.50;5048515;28;20022;-80
2021/08/02 05:51:13;;;;;;;13.68;11.10;;;;;;;29.82;41.12;99013.13;5036332;28;20056;-80
2021/08/02 05:53:39;;;;;;;18.23;11.95;;;;;;;30.14;41.23;99052.75;5038398;28;20116;-80
2021/08/02 05:56:08;;;;;;;19.40;13.57;;;;;;;30.13;41.03;99032.09;5047577;28;20518;-81
2021/08/02 05:58:34;;;;;;;25.98;19.10;;;;;;;30.19;41.17;99038.19;5056542;28;20036;-80
2021/08/02 06:00:59;;;;;;;18.27;16.40;;;;;;;30.42;40.98;99057.91;5050153;28;20043;-80
2021/08/02 06:03:25;;;;;;;34.90;24.63;;;;;;;30.41;41.21;99046.19;5045248;28;20024;-80
2021/08/02 06:05:50;;;;;;;21.95;17.77;;;;;;;30.51;41.10;99050.56;5034295;28;20108;-80
2021/08/02 06:08:15;;;;;;;21.70;14.20;;;;;;;30.14;40.74;98997.50;5033918;28;20044;-81
2021/08/02 06:10:41;;;;;;;18.58;12.15;;;;;;;30.32;40.61;99010.78;5053367;28;20071;-78
2021/08/02 06:13:06;;;;;;;18.08;15.23;;;;;;;30.61;40.10;99044.81;5050727;28;20025;-79
2021/08/02 06:15:31;;;;;;;23.27;14.40;;;;;;;30.66;40.28;99031.00;5052576;28;20505;-80
2021/08/02 06:17:57;;;;;;;20.13;17.95;;;;;;;30.83;40.12;99055.50;5054144;28;20025;-81
2021/08/02 06:20:22;;;;;;;19.92;13.10;;;;;;;30.93;40.27;99057.88;5040288;28;20021;-78
2021/08/02 06:22:48;;;;;;;19.48;15.50;;;;;;;30.51;40.01;99007.75;5032634;28;20486;-80
2021/08/02 06:25:13;;;;;;;13.80;11.95;;;;;;;30.91;40.26;99043.78;5034016;28;20026;-80
2021/08/02 06:27:39;;;;;;;21.48;12.63;;;;;;;31.09;40.36;99066.34;5033912;28;20029;-78
2021/08/02 06:30:05;;;;;;;19.65;13.10;;;;;;;30.73;39.70;99014.97;5033349;28;20021;-80
2021/08/02 06:32:31;;;;;;;21.98;19.27;;;;;;;31.07;39.75;99040.53;5047374;28;20436;-80
2021/08/02 06:34:56;;;;;;;23.75;21.27;;;;;;;30.82;39.47;99002.13;5054291;28;20041;-81
2021/08/02 06:37:23;;;;;;;21.83;16.73;;;;;;;31.18;39.90;99047.25;5050337;28;20028;-81
2021/08/02 06:39:49;;;;;;;22.65;18.67;;;;;;;31.23;39.69;99052.56;5074071;28;20024;-80
2021/08/02 06:42:15;;;;;;;17.52;12.82;;;;;;;31.34;38.88;99045.63;5060328;28;20108;-79
2021/08/02 06:44:42;;;;;;;20.02;12.55;;;;;;;31.45;38.67;99051.53;5053740;28;20121;-80
2021/08/02 06:47:07;;;;;;;22.58;19.55;;;;;;;31.11;38.56;98987.75;5054158;28;20040;-79
2021/08/02 06:49:33;;;;;;;18.95;13.38;;;;;;;31.53;38.43;99046.03;5061298;28;20029;-78
2021/08/02 06:51:58;;;;;;;26.05;16.98;;;;;;;31.53;38.28;99037.03;5055557;28;20029;-81
2021/08/02 06:54:23;;;;;;;25.83;17.10;;;;;;;31.06;38.19;98941.56;5039823;28;20057;-80
2021/08/02 06:56:49;;;;;;;18.77;13.63;;;;;;;31.69;38.58;99021.69;5033559;28;20033;-80
2021/08/02 06:59:14;;;;;;;18.98;14.38;;;;;;;31.72;38.62;99023.00;5051933;28;20035;-79
2021/08/02 07:01:40;;;;;;;17.70;14.80;;;;;;;31.69;37.88;99012.69;5047286;28;20448;-81
2021/08/02 07:04:05;;;;;;;20.65;15.68;;;;;;;31.95;38.15;99031.69;5041663;28;20025;-80
2021/08/02 07:06:30;;;;;;;18.55;15.00;;;;;;;31.91;37.70;99021.41;5056037;28;20021;-78
2021/08/02 07:08:58;;;;;;;23.45;14.60;;;;;;;32.05;37.64;99034.03;5060569;28;20025;-79
2021/08/02 07:11:24;;;;;;;17.73;16.00;;;;;;;31.81;37.25;98980.84;5041333;28;20392;-79
2021/08/02 07:13:49;;;;;;;19.00;14.90;;;;;;;31.83;37.42;98977.78;5044728;28;20528;-79
2021/08/02 07:16:15;;;;;;;27.23;16.10;;;;;;;32.19;36.93;99015.44;5033209;28;20029;-81
2021/08/02 07:18:40;;;;;;;19.67;15.82;;;;;;;32.12;36.88;99002.34;5046756;28;20112;-82
2021/08/02 07:21:05;;;;;;;24.88;14.52;;;;;;;31.97;36.27;98977.56;5037269;28;20027;-81
2021/08/02 07:23:31;;;;;;;16.27;12.52;;;;;;;32.18;35.67;98992.81;5038733;28;20037;-81
2021/08/02 07:25:56;;;;;;;20.73;14.80;;;;;;;32.36;35.55;99000.88;5042541;28;20036;-80
2021/08/02 07:28:23;;;;;;;22.35;14.90;;;;;;;32.54;35.77;99026.91;5047075;28;20482;-80
2021/08/02 07:30:48;;;;;;;21.80;14.55;;;;;;;32.38;35.90;98987.69;5056968;28;20078;-81
2021/08/02 07:33:13;;;;;;;20.30;14.10;;;;;;;32.44;35.15;98991.81;5032091;28;20033;-81
2021/08/02 07:35:39;;;;;;;18.40;13.32;;;;;;;32.80;35.23;99034.91;5036351;28;20091;-79
2021/08/02 07:38:04;;;;;;;22.48;14.65;;;;;;;32.50;34.76;98974.06;5037791;28;20024;-78
2021/08/02 07:40:30;;;;;;;24.20;14.48;;;;;;;32.93;34.34;99014.66;5051634;28;20039;-79
2021/08/02 07:42:55;;;;;;;25.80;13.98;;;;;;;32.81;34.53;98987.28;5033648;28;20067;-80
2021/08/02 07:45:21;;;;;;;32.50;28.77;;;;;;;33.06;34.40;99010.00;5030965;28;20029;-81
2021/08/02 07:47:46;;;;;;;33.45;27.70;;;;;;;32.86;34.66;98965.19;5031609;28;20080;-80
2021/08/02 07:50:12;;;;;;;19.88;14.80;;;;;;;33.34;34.34;99027.41;5032171;28;20033;-81
2021/08/02 07:52:39;;;;;;;20.20;13.02;;;;;;;33.43;33.58;99030.03;5031931;28;20037;-81
2021/08/02 07:55:05;;;;;;;17.73;12.93;;;;;;;33.47;33.38;99031.75;5031823;28;20040;-80
2021/08/02 07:57:32;;;;;;;17.65;13.45;;;;;;;33.50;33.38;99007.59;5036883;28;20032;-81
2021/08/02 08:00:07;;;;;;;21.38;13.73;;;;;;;33.68;33.43;99019.88;5048545;28;20053;-80
2021/08/02 08:02:33;;;;;;;16.50;12.45;;;;;;;33.49;33.05;98979.41;5042094;28;20045;-81
2021/08/02 08:04:58;;;;;;;21.15;13.68;;;;;;;33.58;33.06;98988.28;5037258;28;20133;-79
2021/08/02 08:07:23;;;;;;;16.05;12.02;;;;;;;33.47;32.69;98963.31;5041517;28;20478;-80
2021/08/02 08:09:49;;;;;;;16.38;11.75;;;;;;;33.91;32.96;99007.31;5044259;28;20024;-79
2021/08/02 08:12:14;;;;;;;20.17;12.10;;;;;;;34.12;32.58;99009.91;5042575;28;20036;-79
2021/08/02 08:14:40;;;;;;;17.73;11.25;;;;;;;33.99;32.16;98981.75;5030865;28;20025;-80
2021/08/02 08:17:05;;;;;;;21.40;11.15;;;;;;;34.30;31.86;99013.16;5031422;28;20486;-80
2021/08/02 08:19:31;;;;;;;16.83;11.68;;;;;;;33.68;31.36;98902.16;5042898;28;20120;-80
2021/08/02 08:21:57;;;;;;;18.85;14.65;;;;;;;34.47;31.26;99004.69;5031415;28;20033;-80
2021/08/02 08:24:23;;;;;;;15.07;12.35;;;;;;;34.13;31.52;98942.19;5031607;28;20497;-73
2021/08/02 08:26:48;;;;;;;18.90;11.35;;;;;;;34.26;31.23;98944.56;5031234;28;20112;-74
2021/08/02 08:29:14;;;;;;;23.80;20.27;;;;;;;34.43;31.38;98954.44;5045561;28;20021;-76
2021/08/02 08:31:39;;;;;;;22.50;13.45;;;;;;;34.76;31.28;98986.25;5040113;28;20025;-75
2021/08/02 08:34:05;;;;;;;19.15;13.45;;;;;;;34.92;31.30;99000.81;5038717;28;20063;-75
2021/08/02 08:36:31;;;;;;;26.13;15.68;;;;;;;34.77;30.27;98949.44;5034046;28;20030;-74
2021/08/02 08:38:56;;;;;;;22.10;12.82;;;;;;;34.84;29.95;98939.47;5049584;28;20027;-73
2021/08/02 08:41:22;;;;;;;19.73;13.07;;;;;;;34.70;30.00;98915.19;5045637;28;20021;-73
2021/08/02 08:43:52;;;;;;;24.55;21.77;;;;;;;35.23;30.25;98986.31;5030657;28;20438;-74
2021/08/02 08:46:24;;;;;;;24.60;19.60;;;;;;;35.17;30.06;98955.59;5031066;28;20040;-73
2021/08/02 08:48:50;;;;;;;18.42;13.93;;;;;;;35.45;29.68;98982.94;5031217;28;20053;-76
2021/08/02 08:51:16;;;;;;;16.40;13.77;;;;;;;35.56;29.45;98980.44;5029652;28;20060;-75
2021/08/02 08:53:43;;;;;;;18.75;12.90;;;;;;;35.65;29.18;98970.84;5041841;28;20056;-75
2021/08/02 08:56:16;;;;;;;18.33;12.77;;;;;;;35.53;28.93;98942.72;5049112;28;20029;-76
2021/08/02 08:58:43;;;;;;;15.35;11.90;;;;;;;35.80;28.47;98968.44;5037516;28;20018;-75
2021/08/02 09:01:09;;;;;;;17.17;12.77;;;;;;;35.80;28.44;98950.00;5046779;28;20032;-75
2021/08/02 09:03:34;;;;;;;17.55;11.85;;;;;;;35.96;28.06;98955.47;5031129;28;20030;-75
2021/08/02 09:06:04;;;;;;;19.40;11.57;;;;;;;35.93;28.41;98924.03;5030806;28;20482;-74
2021/08/02 09:08:30;;;;;;;16.33;10.47;;;;;;;36.27;27.98;98951.78;5031016;28;20067;-75
2021/08/02 09:10:57;;;;;;;29.25;25.85;;;;;;;36.35;27.57;98941.75;5030940;28;20792;-75
2021/08/02 09:13:33;;;;;;;19.98;12.80;;;;;;;36.74;27.41;98967.22;5035398;28;20509;-75
2021/08/02 09:16:23;;;;;;;18.48;14.15;;;;;;;36.81;27.35;98945.38;5042177;28;20192;-73
2021/08/02 09:19:00;;;;;;;16.52;13.55;;;;;;;36.77;27.28;98922.50;5030121;28;20029;-73
2021/08/02 09:21:40;;;;;;;14.70;10.65;;;;;;;37.02;26.50;98918.19;5032818;28;20087;-76
2021/08/02 09:24:05;;;;;;;16.17;10.85;;;;;;;37.04;26.62;98917.84;5032769;28;20466;-75
2021/08/02 09:26:32;;;;;;;21.65;11.40;;;;;;;37.17;26.54;98903.53;5036833;28;20108;-76
2021/08/02 09:28:58;;;;;;;19.08;11.00;;;;;;;37.61;26.31;98938.78;5037274;28;20040;-76
2021/08/02 09:31:34;;;;;;;16.77;12.68;;;;;;;37.63;26.35;98919.94;5030432;28;20041;-76
2021/08/02 09:34:05;;;;;;;17.90;10.23;;;;;;;37.82;25.57;98930.84;5035852;28;20029;-77
2021/08/02 09:36:57;;;;;;;19.73;11.98;;;;;;;37.97;25.61;98928.28;5050661;28;20036;-75
2021/08/02 09:39:29;;;;;;;18.77;9.60;;;;;;;38.14;25.22;98925.72;5043114;28;20060;-74
2021/08/02 09:42:02;;;;;;;18.63;10.57;;;;;;;38.24;24.82;98921.53;5044703;28;20051;-75
2021/08/02 09:44:27;;;;;;;17.58;9.75;;;;;;;38.10;24.67;98866.19;5048052;28;20536;-75
2021/08/02 09:46:58;;;;;;;20.70;11.43;;;;;;;38.19;24.47;98863.97;5035108;28;20115;-75
2021/08/02 09:49:25;;;;;;;19.55;9.82;;;;;;;38.27;24.25;98862.84;5049128;28;20052;-75
2021/08/02 09:51:51;;;;;;;17.75;11.85;;;;;;;38.69;24.12;98916.91;5031807;28;20136;-75
2021/08/02 09:54:28;;;;;;;15.85;9.15;;;;;;;38.88;23.35;98905.63;5028281;28;20064;-75
2021/08/02 09:56:54;;;;;;;22.10;9.60;;;;;;;39.02;23.84;98914.00;5030675;28;20018;-74
2021/08/02 09:59:20;;;;;;;17.88;9.65;;;;;;;39.17;23.36;98894.81;5031231;28;20079;-75
2021/08/02 10:01:50;;;;;;;19.50;8.98;;;;;;;39.35;22.87;98898.47;5030144;28;20445;-75
2021/08/02 10:04:16;;;;;;;22.42;11.55;;;;;;;39.45;22.44;98891.44;5030356;28;20104;-77
2021/08/02 10:06:42;;;;;;;20.88;14.70;;;;;;;39.71;22.52;98891.19;5029943;28;20036;-74
2021/08/02 10:09:10;;;;;;;18.88;10.10;;;;;;;39.86;22.14;98901.13;5044937;28;20032;-75
2021/08/02 10:11:35;;;;;;;17.92;8.32;;;;;;;39.75;21.75;98869.91;5033468;28;20025;-75
2021/08/02 10:14:01;;;;;;;16.85;7.30;;;;;;;40.08;22.07;98888.19;5048231;28;20507;-77
2021/08/02 10:16:29;;;;;;;14.60;7.45;;;;;;;40.21;21.59;98880.34;5074159;28;20020;-77
2021/08/02 10:19:03;;;;;;;18.55;7.55;;;;;;;40.34;19.79;98893.41;5046220;28;21492;-75
2021/08/02 10:21:38;;;;;;;17.88;7.65;;;;;;;40.47;20.40;98881.97;5033705;28;20017;-75
2021/08/02 10:24:08;;;;;;;14.65;7.70;;;;;;;40.69;20.66;98889.09;5039969;28;20030;-79
2021/08/02 10:26:33;;;;;;;13.70;7.90;;;;;;;40.36;20.07;98801.75;5045403;28;20490;-80
2021/08/02 10:29:03;;;;;;;24.05;7.80;;;;;;;41.02;19.37;98876.88;5035773;28;20029;-79
2021/08/02 10:31:40;;;;;;;17.75;6.78;;;;;;;40.82;19.36;98831.38;5044625;28;20112;-79
2021/08/02 10:34:22;;;;;;;16.85;7.55;;;;;;;41.26;18.97;98876.06;5037225;28;20091;-80
2021/08/02 10:37:05;;;;;;;21.95;7.72;;;;;;;41.30;18.54;98873.28;5046232;28;20025;-80
2021/08/02 10:39:35;;;;;;;18.70;7.80;;;;;;;40.86;18.52;98799.75;5033824;28;20021;-80
2021/08/02 10:42:16;;;;;;;16.42;6.93;;;;;;;41.51;18.47;98870.44;5034922;28;20494;-82
2021/08/02 10:44:53;;;;;;;18.58;7.47;;;;;;;41.76;18.99;98866.81;5035653;28;20116;-79
2021/08/02 10:47:18;;;;;;;15.82;6.40;;;;;;;41.95;18.51;98865.53;5039872;28;20047;-80
2021/08/02 10:49:52;;;;;;;16.02;7.28;;;;;;;41.81;18.15;98810.94;5037376;28;20490;-80
2021/08/02 10:52:28;;;;;;;18.45;6.80;;;;;;;42.15;17.75;98848.00;5039710;28;20091;-80
2021/08/02 10:54:54;;;;;;;19.35;6.40;;;;;;;42.34;17.96;98859.75;5050214;28;20017;-80
2021/08/02 10:57:20;;;;;;;16.35;7.25;;;;;;;42.48;17.80;98838.28;5054690;28;20020;-79
2021/08/02 10:59:45;;;;;;;21.35;6.47;;;;;;;42.71;16.73;98843.25;5039203;28;20662;-81
2021/08/02 11:02:12;;;;;;;18.73;6.50;;;;;;;42.79;16.43;98841.19;5037729;28;20144;-79
2021/08/02 11:04:39;;;;;;;19.27;6.72;;;;;;;42.44;16.29;98783.97;5048021;28;20029;-80
2021/08/02 11:07:08;;;;;;;20.63;6.82;;;;;;;42.78;16.47;98831.28;5047517;28;20024;-79
2021/08/02 11:09:36;;;;;;;21.38;7.32;;;;;;;43.04;16.55;98827.88;5052963;28;20046;-80
2021/08/02 11:12:11;;;;;;;15.10;6.47;;;;;;;42.87;16.04;98791.94;5036450;28;20025;-81
2021/08/02 11:14:54;;;;;;;20.77;7.32;;;;;;;43.27;15.87;98821.72;5033209;28;20021;-80
2021/08/02 11:17:29;;;;;;;19.73;6.53;;;;;;;43.30;15.88;98825.66;5042983;28;20726;-79
2021/08/02 11:20:08;;;;;;;21.00;8.65;;;;;;;42.98;15.40;98767.63;5032388;28;20082;-79
2021/08/02 11:23:00;;;;;;;23.60;7.22;;;;;;;43.36;15.38;98816.44;5045687;28;20063;-81